sensor_id;sensor_type;location;lat;lon;timestamp;P1;durP1;ratioP1;P2;durP2;ratioP2
62463;SDS011;48512;48.552;9.380;2023-04-24T00:00:57;1.73;;;0.70;;
62463;SDS011;48512;48.552;9.380;2023-04-24T00:03:24;0.80;;;0.50;;
62463;SDS011;48512;48.552;9.380;2023-04-24T00:05:53;1.60;;;0.60;;
62463;SDS011;48512;48.552;9.380;2023-04-24T00:08:20;0.98;;;0.70;;
62463;SDS011;48512;48.552;9.380;2023-04-24T00:10:46;1.77;;;0.60;;
62463;SDS011;48512;48.552;9.380;2023-04-24T00:13:13;1.20;;;0.52;;
62463;SDS011;48512;48.552;9.380;2023-04-24T00:15:39;0.70;;;0.70;;
62463;SDS011;48512;48.552;9.380;2023-04-24T00:18:05;0.90;;;0.60;;
62463;SDS011;48512;48.552;9.380;2023-04-24T00:20:31;0.60;;;0.60;;
62463;SDS011;48512;48.552;9.380;2023-04-24T00:23:01;2.30;;;0.75;;
62463;SDS011;48512;48.552;9.380;2023-04-24T00:25:27;1.92;;;0.68;;
62463;SDS011;48512;48.552;9.380;2023-04-24T00:27:53;1.15;;;0.70;;
62463;SDS011;48512;48.552;9.380;2023-04-24T00:30:20;1.67;;;0.60;;
62463;SDS011;48512;48.552;9.380;2023-04-24T00:32:46;1.05;;;0.60;;
62463;SDS011;48512;48.552;9.380;2023-04-24T00:35:12;1.95;;;0.60;;
62463;SDS011;48512;48.552;9.380;2023-04-24T00:37:38;0.90;;;0.60;;
62463;SDS011;48512;48.552;9.380;2023-04-24T00:40:05;0.60;;;0.50;;
62463;SDS011;48512;48.552;9.380;2023-04-24T00:42:32;0.77;;;0.52;;
62463;SDS011;48512;48.552;9.380;2023-04-24T00:44:59;1.30;;;0.70;;
62463;SDS011;48512;48.552;9.380;2023-04-24T00:47:26;3.72;;;0.82;;
62463;SDS011;48512;48.552;9.380;2023-04-24T00:49:54;1.33;;;0.60;;
62463;SDS011;48512;48.552;9.380;2023-04-24T00:52:20;0.95;;;0.73;;
62463;SDS011;48512;48.552;9.380;2023-04-24T00:54:49;1.20;;;0.60;;
62463;SDS011;48512;48.552;9.380;2023-04-24T00:57:16;0.85;;;0.63;;
62463;SDS011;48512;48.552;9.380;2023-04-24T00:59:43;0.60;;;0.60;;
62463;SDS011;48512;48.552;9.380;2023-04-24T01:02:10;0.68;;;0.60;;
62463;SDS011;48512;48.552;9.380;2023-04-24T01:04:37;1.35;;;0.60;;
62463;SDS011;48512;48.552;9.380;2023-04-24T01:07:04;1.33;;;0.63;;
62463;SDS011;48512;48.552;9.380;2023-04-24T01:09:39;0.80;;;0.50;;
62463;SDS011;48512;48.552;9.380;2023-04-24T01:12:09;1.63;;;0.50;;
62463;SDS011;48512;48.552;9.380;2023-04-24T01:14:37;1.42;;;0.70;;
62463;SDS011;48512;48.552;9.380;2023-04-24T01:17:04;1.40;;;0.68;;
62463;SDS011;48512;48.552;9.380;2023-04-24T01:19:30;0.40;;;0.40;;
62463;SDS011;48512;48.552;9.380;2023-04-24T01:21:57;1.10;;;0.60;;
62463;SDS011;48512;48.552;9.380;2023-04-24T01:24:24;0.77;;;0.45;;
62463;SDS011;48512;48.552;9.380;2023-04-24T01:26:50;1.15;;;0.70;;
62463;SDS011;48512;48.552;9.380;2023-04-24T01:29:18;0.68;;;0.60;;
62463;SDS011;48512;48.552;9.380;2023-04-24T01:31:45;1.00;;;0.60;;
62463;SDS011;48512;48.552;9.380;2023-04-24T01:34:12;1.90;;;0.90;;
62463;SDS011;48512;48.552;9.380;2023-04-24T01:36:38;1.50;;;0.60;;
62463;SDS011;48512;48.552;9.380;2023-04-24T01:39:05;1.35;;;0.65;;
62463;SDS011;48512;48.552;9.380;2023-04-24T01:41:31;2.13;;;1.00;;
62463;SDS011;48512;48.552;9.380;2023-04-24T01:43:58;3.15;;;0.75;;
62463;SDS011;48512;48.552;9.380;2023-04-24T01:46:24;3.10;;;0.90;;
62463;SDS011;48512;48.552;9.380;2023-04-24T01:48:51;1.60;;;0.80;;
62463;SDS011;48512;48.552;9.380;2023-04-24T01:51:19;1.23;;;0.80;;
62463;SDS011;48512;48.552;9.380;2023-04-24T01:53:45;1.20;;;0.75;;
62463;SDS011;48512;48.552;9.380;2023-04-24T01:56:11;1.70;;;0.80;;
62463;SDS011;48512;48.552;9.380;2023-04-24T01:58:37;2.13;;;0.60;;
62463;SDS011;48512;48.552;9.380;2023-04-24T02:01:05;1.63;;;0.57;;
62463;SDS011;48512;48.552;9.380;2023-04-24T02:03:32;0.88;;;0.52;;
62463;SDS011;48512;48.552;9.380;2023-04-24T02:05:58;1.17;;;0.70;;
62463;SDS011;48512;48.552;9.380;2023-04-24T02:08:24;0.60;;;0.50;;
62463;SDS011;48512;48.552;9.380;2023-04-24T02:10:51;1.23;;;0.60;;
62463;SDS011;48512;48.552;9.380;2023-04-24T02:13:17;0.88;;;0.60;;
62463;SDS011;48512;48.552;9.380;2023-04-24T02:15:43;1.13;;;0.63;;
62463;SDS011;48512;48.552;9.380;2023-04-24T02:18:09;2.10;;;0.75;;
62463;SDS011;48512;48.552;9.380;2023-04-24T02:20:37;1.05;;;0.60;;
62463;SDS011;48512;48.552;9.380;2023-04-24T02:23:03;1.50;;;0.52;;
62463;SDS011;48512;48.552;9.380;2023-04-24T02:25:29;1.23;;;1.10;;
62463;SDS011;48512;48.552;9.380;2023-04-24T02:27:55;2.17;;;0.80;;
62463;SDS011;48512;48.552;9.380;2023-04-24T02:30:21;1.70;;;0.80;;
62463;SDS011;48512;48.552;9.380;2023-04-24T02:32:47;2.75;;;1.00;;
62463;SDS011;48512;48.552;9.380;2023-04-24T02:35:14;1.73;;;0.80;;
62463;SDS011;48512;48.552;9.380;2023-04-24T02:37:40;1.10;;;0.77;;
62463;SDS011;48512;48.552;9.380;2023-04-24T02:40:06;3.10;;;1.00;;
62463;SDS011;48512;48.552;9.380;2023-04-24T02:42:33;0.88;;;0.80;;
62463;SDS011;48512;48.552;9.380;2023-04-24T02:45:00;0.80;;;0.80;;
62463;SDS011;48512;48.552;9.380;2023-04-24T02:47:26;1.02;;;0.93;;
62463;SDS011;48512;48.552;9.380;2023-04-24T02:49:53;1.45;;;1.00;;
62463;SDS011;48512;48.552;9.380;2023-04-24T02:52:19;0.85;;;0.80;;
62463;SDS011;48512;48.552;9.380;2023-04-24T02:54:45;1.52;;;0.95;;
62463;SDS011;48512;48.552;9.380;2023-04-24T02:57:11;2.03;;;1.10;;
62463;SDS011;48512;48.552;9.380;2023-04-24T02:59:40;1.25;;;0.90;;
62463;SDS011;48512;48.552;9.380;2023-04-24T03:02:06;1.80;;;1.23;;
62463;SDS011;48512;48.552;9.380;2023-04-24T03:04:33;4.45;;;1.25;;
62463;SDS011;48512;48.552;9.380;2023-04-24T03:06:59;1.92;;;0.80;;
62463;SDS011;48512;48.552;9.380;2023-04-24T03:09:25;1.05;;;0.95;;
62463;SDS011;48512;48.552;9.380;2023-04-24T03:11:51;1.00;;;1.00;;
62463;SDS011;48512;48.552;9.380;2023-04-24T03:14:17;0.90;;;0.90;;
62463;SDS011;48512;48.552;9.380;2023-04-24T03:16:43;0.90;;;0.60;;
62463;SDS011;48512;48.552;9.380;2023-04-24T03:19:10;1.48;;;0.70;;
62463;SDS011;48512;48.552;9.380;2023-04-24T03:21:45;1.00;;;0.80;;
62463;SDS011;48512;48.552;9.380;2023-04-24T03:24:11;2.03;;;0.85;;
62463;SDS011;48512;48.552;9.380;2023-04-24T03:26:38;0.90;;;0.90;;
62463;SDS011;48512;48.552;9.380;2023-04-24T03:29:24;2.22;;;0.93;;
62463;SDS011;48512;48.552;9.380;2023-04-24T03:31:51;2.15;;;1.20;;
62463;SDS011;48512;48.552;9.380;2023-04-24T03:34:17;0.88;;;0.80;;
62463;SDS011;48512;48.552;9.380;2023-04-24T03:36:43;2.08;;;0.90;;
62463;SDS011;48512;48.552;9.380;2023-04-24T03:39:10;1.20;;;1.10;;
62463;SDS011;48512;48.552;9.380;2023-04-24T03:41:42;3.35;;;0.90;;
62463;SDS011;48512;48.552;9.380;2023-04-24T03:44:22;1.70;;;1.20;;
62463;SDS011;48512;48.552;9.380;2023-04-24T03:46:48;1.45;;;0.80;;
62463;SDS011;48512;48.552;9.380;2023-04-24T03:49:14;1.85;;;0.95;;
62463;SDS011;48512;48.552;9.380;2023-04-24T03:51:43;0.95;;;0.90;;
62463;SDS011;48512;48.552;9.380;2023-04-24T03:54:29;4.07;;;2.03;;
62463;SDS011;48512;48.552;9.380;2023-04-24T03:56:55;5.00;;;1.52;;
62463;SDS011;48512;48.552;9.380;2023-04-24T03:59:24;2.47;;;1.40;;
62463;SDS011;48512;48.552;9.380;2023-04-24T04:02:04;1.05;;;0.90;;
62463;SDS011;48512;48.552;9.380;2023-04-24T04:04:31;1.55;;;0.80;;
62463;SDS011;48512;48.552;9.380;2023-04-24T04:06:57;2.05;;;0.90;;
62463;SDS011;48512;48.552;9.380;2023-04-24T04:09:27;1.30;;;1.10;;
62463;SDS011;48512;48.552;9.380;2023-04-24T04:11:53;3.00;;;1.30;;
62463;SDS011;48512;48.552;9.380;2023-04-24T04:14:19;0.80;;;0.70;;
62463;SDS011;48512;48.552;9.380;2023-04-24T04:16:47;1.88;;;0.90;;
62463;SDS011;48512;48.552;9.380;2023-04-24T04:19:14;4.60;;;2.83;;
62463;SDS011;48512;48.552;9.380;2023-04-24T04:21:40;5.32;;;2.78;;
62463;SDS011;48512;48.552;9.380;2023-04-24T04:24:22;1.48;;;1.15;;
62463;SDS011;48512;48.552;9.380;2023-04-24T04:26:51;1.38;;;1.27;;
62463;SDS011;48512;48.552;9.380;2023-04-24T04:29:35;0.90;;;0.90;;
62463;SDS011;48512;48.552;9.380;2023-04-24T04:32:05;1.67;;;1.00;;
62463;SDS011;48512;48.552;9.380;2023-04-24T04:34:31;3.28;;;1.13;;
62463;SDS011;48512;48.552;9.380;2023-04-24T04:36:59;1.13;;;0.93;;
62463;SDS011;48512;48.552;9.380;2023-04-24T04:39:47;1.10;;;1.00;;
62463;SDS011;48512;48.552;9.380;2023-04-24T04:42:20;1.23;;;1.10;;
62463;SDS011;48512;48.552;9.380;2023-04-24T04:44:46;1.02;;;0.90;;
62463;SDS011;48512;48.552;9.380;2023-04-24T04:47:17;1.23;;;1.08;;
62463;SDS011;48512;48.552;9.380;2023-04-24T04:49:44;0.95;;;0.88;;
62463;SDS011;48512;48.552;9.380;2023-04-24T04:52:20;0.98;;;0.90;;
62463;SDS011;48512;48.552;9.380;2023-04-24T04:54:52;1.02;;;0.80;;
62463;SDS011;48512;48.552;9.380;2023-04-24T04:57:19;2.67;;;1.10;;
62463;SDS011;48512;48.552;9.380;2023-04-24T04:59:46;0.80;;;0.80;;
62463;SDS011;48512;48.552;9.380;2023-04-24T05:02:21;1.40;;;1.13;;
62463;SDS011;48512;48.552;9.380;2023-04-24T05:04:47;3.28;;;2.00;;
62463;SDS011;48512;48.552;9.380;2023-04-24T05:07:13;4.90;;;2.00;;
62463;SDS011;48512;48.552;9.380;2023-04-24T05:09:45;1.92;;;1.10;;
62463;SDS011;48512;48.552;9.380;2023-04-24T05:12:12;1.58;;;1.00;;
62463;SDS011;48512;48.552;9.380;2023-04-24T05:14:46;1.92;;;1.30;;
62463;SDS011;48512;48.552;9.380;2023-04-24T05:17:13;1.75;;;1.10;;
62463;SDS011;48512;48.552;9.380;2023-04-24T05:19:39;2.13;;;1.40;;
62463;SDS011;48512;48.552;9.380;2023-04-24T05:22:07;2.95;;;1.10;;
62463;SDS011;48512;48.552;9.380;2023-04-24T05:24:37;6.32;;;1.10;;
62463;SDS011;48512;48.552;9.380;2023-04-24T05:27:18;3.05;;;1.40;;
62463;SDS011;48512;48.552;9.380;2023-04-24T05:29:44;1.88;;;1.23;;
62463;SDS011;48512;48.552;9.380;2023-04-24T05:32:11;1.48;;;1.35;;
62463;SDS011;48512;48.552;9.380;2023-04-24T05:34:37;1.98;;;1.40;;
62463;SDS011;48512;48.552;9.380;2023-04-24T05:37:03;2.05;;;1.85;;
62463;SDS011;48512;48.552;9.380;2023-04-24T05:39:34;4.10;;;2.10;;
62463;SDS011;48512;48.552;9.380;2023-04-24T05:42:01;5.03;;;2.92;;
62463;SDS011;48512;48.552;9.380;2023-04-24T05:44:27;3.08;;;2.28;;
62463;SDS011;48512;48.552;9.380;2023-04-24T05:46:53;5.43;;;2.42;;
62463;SDS011;48512;48.552;9.380;2023-04-24T05:49:22;3.95;;;2.75;;
62463;SDS011;48512;48.552;9.380;2023-04-24T05:51:48;3.20;;;2.40;;
62463;SDS011;48512;48.552;9.380;2023-04-24T05:54:15;2.17;;;1.98;;
62463;SDS011;48512;48.552;9.380;2023-04-24T05:56:41;3.20;;;1.70;;
62463;SDS011;48512;48.552;9.380;2023-04-24T05:59:08;4.32;;;2.80;;
62463;SDS011;48512;48.552;9.380;2023-04-24T06:01:34;2.53;;;2.30;;
62463;SDS011;48512;48.552;9.380;2023-04-24T06:04:13;3.03;;;2.33;;
62463;SDS011;48512;48.552;9.380;2023-04-24T06:06:40;2.92;;;1.95;;
62463;SDS011;48512;48.552;9.380;2023-04-24T06:09:07;3.20;;;2.15;;
62463;SDS011;48512;48.552;9.380;2023-04-24T06:11:33;2.90;;;2.10;;
62463;SDS011;48512;48.552;9.380;2023-04-24T06:14:00;2.15;;;1.92;;
62463;SDS011;48512;48.552;9.380;2023-04-24T06:16:38;2.47;;;1.90;;
62463;SDS011;48512;48.552;9.380;2023-04-24T06:19:15;2.75;;;2.30;;
62463;SDS011;48512;48.552;9.380;2023-04-24T06:21:42;2.38;;;2.03;;
62463;SDS011;48512;48.552;9.380;2023-04-24T06:24:08;2.20;;;1.77;;
62463;SDS011;48512;48.552;9.380;2023-04-24T06:26:34;2.72;;;1.90;;
62463;SDS011;48512;48.552;9.380;2023-04-24T06:29:00;2.15;;;1.95;;
62463;SDS011;48512;48.552;9.380;2023-04-24T06:31:26;3.35;;;2.15;;
62463;SDS011;48512;48.552;9.380;2023-04-24T06:33:53;2.80;;;2.15;;
62463;SDS011;48512;48.552;9.380;2023-04-24T06:36:19;2.85;;;2.05;;
62463;SDS011;48512;48.552;9.380;2023-04-24T06:38:46;4.20;;;3.00;;
62463;SDS011;48512;48.552;9.380;2023-04-24T06:41:12;3.63;;;2.38;;
62463;SDS011;48512;48.552;9.380;2023-04-24T06:43:38;3.80;;;2.30;;
62463;SDS011;48512;48.552;9.380;2023-04-24T06:46:04;2.15;;;1.95;;
62463;SDS011;48512;48.552;9.380;2023-04-24T06:48:31;5.22;;;2.40;;
62463;SDS011;48512;48.552;9.380;2023-04-24T06:50:57;3.92;;;2.95;;
62463;SDS011;48512;48.552;9.380;2023-04-24T06:53:23;4.03;;;2.10;;
62463;SDS011;48512;48.552;9.380;2023-04-24T06:55:49;2.30;;;2.10;;
62463;SDS011;48512;48.552;9.380;2023-04-24T06:58:16;3.47;;;2.45;;
62463;SDS011;48512;48.552;9.380;2023-04-24T07:00:42;2.92;;;2.05;;
62463;SDS011;48512;48.552;9.380;2023-04-24T07:03:08;3.92;;;2.40;;
62463;SDS011;48512;48.552;9.380;2023-04-24T07:05:34;2.97;;;2.30;;
62463;SDS011;48512;48.552;9.380;2023-04-24T07:08:01;4.28;;;2.60;;
62463;SDS011;48512;48.552;9.380;2023-04-24T07:10:27;3.05;;;2.63;;
62463;SDS011;48512;48.552;9.380;2023-04-24T07:12:54;2.30;;;2.10;;
62463;SDS011;48512;48.552;9.380;2023-04-24T07:15:22;3.30;;;2.40;;
62463;SDS011;48512;48.552;9.380;2023-04-24T07:17:49;4.00;;;2.28;;
62463;SDS011;48512;48.552;9.380;2023-04-24T07:20:15;2.92;;;2.10;;
62463;SDS011;48512;48.552;9.380;2023-04-24T07:22:43;2.05;;;1.80;;
62463;SDS011;48512;48.552;9.380;2023-04-24T07:25:09;3.78;;;2.20;;
62463;SDS011;48512;48.552;9.380;2023-04-24T07:27:35;6.20;;;3.92;;
62463;SDS011;48512;48.552;9.380;2023-04-24T07:30:03;4.15;;;3.03;;
62463;SDS011;48512;48.552;9.380;2023-04-24T07:32:30;3.13;;;2.53;;
62463;SDS011;48512;48.552;9.380;2023-04-24T07:34:56;4.38;;;2.85;;
62463;SDS011;48512;48.552;9.380;2023-04-24T07:37:22;2.75;;;2.40;;
62463;SDS011;48512;48.552;9.380;2023-04-24T07:39:49;5.15;;;2.60;;
62463;SDS011;48512;48.552;9.380;2023-04-24T07:42:15;4.07;;;2.88;;
62463;SDS011;48512;48.552;9.380;2023-04-24T07:44:41;3.65;;;2.47;;
62463;SDS011;48512;48.552;9.380;2023-04-24T07:47:08;2.63;;;2.40;;
62463;SDS011;48512;48.552;9.380;2023-04-24T07:49:34;4.25;;;2.42;;
62463;SDS011;48512;48.552;9.380;2023-04-24T07:52:00;3.70;;;2.80;;
62463;SDS011;48512;48.552;9.380;2023-04-24T07:54:29;5.47;;;2.80;;
62463;SDS011;48512;48.552;9.380;2023-04-24T07:56:55;4.70;;;2.90;;
62463;SDS011;48512;48.552;9.380;2023-04-24T07:59:22;3.22;;;2.70;;
62463;SDS011;48512;48.552;9.380;2023-04-24T08:01:48;3.22;;;2.40;;
62463;SDS011;48512;48.552;9.380;2023-04-24T08:04:14;2.53;;;2.33;;
62463;SDS011;48512;48.552;9.380;2023-04-24T08:06:40;2.72;;;2.53;;
62463;SDS011;48512;48.552;9.380;2023-04-24T08:09:06;3.38;;;2.25;;
62463;SDS011;48512;48.552;9.380;2023-04-24T08:11:33;4.00;;;2.53;;
62463;SDS011;48512;48.552;9.380;2023-04-24T08:13:59;2.60;;;2.40;;
62463;SDS011;48512;48.552;9.380;2023-04-24T08:16:25;4.53;;;2.30;;
62463;SDS011;48512;48.552;9.380;2023-04-24T08:18:52;3.33;;;2.58;;
62463;SDS011;48512;48.552;9.380;2023-04-24T08:21:19;2.63;;;1.98;;
62463;SDS011;48512;48.552;9.380;2023-04-24T08:23:46;3.47;;;2.10;;
62463;SDS011;48512;48.552;9.380;2023-04-24T08:26:12;3.30;;;2.22;;
62463;SDS011;48512;48.552;9.380;2023-04-24T08:28:39;2.33;;;1.85;;
62463;SDS011;48512;48.552;9.380;2023-04-24T08:31:05;2.70;;;2.15;;
62463;SDS011;48512;48.552;9.380;2023-04-24T08:33:31;2.72;;;1.90;;
62463;SDS011;48512;48.552;9.380;2023-04-24T08:36:03;2.95;;;2.13;;
62463;SDS011;48512;48.552;9.380;2023-04-24T08:38:31;2.80;;;2.03;;
62463;SDS011;48512;48.552;9.380;2023-04-24T08:40:58;3.67;;;2.05;;
62463;SDS011;48512;48.552;9.380;2023-04-24T08:43:25;3.30;;;2.15;;
62463;SDS011;48512;48.552;9.380;2023-04-24T08:45:54;2.15;;;1.85;;
62463;SDS011;48512;48.552;9.380;2023-04-24T08:48:22;2.35;;;1.75;;
62463;SDS011;48512;48.552;9.380;2023-04-24T08:50:50;3.00;;;2.03;;
62463;SDS011;48512;48.552;9.380;2023-04-24T08:53:17;2.40;;;2.20;;
62463;SDS011;48512;48.552;9.380;2023-04-24T08:55:47;4.07;;;1.98;;
62463;SDS011;48512;48.552;9.380;2023-04-24T08:58:14;3.97;;;2.72;;
62463;SDS011;48512;48.552;9.380;2023-04-24T09:00:42;2.20;;;2.00;;
62463;SDS011;48512;48.552;9.380;2023-04-24T09:03:13;3.53;;;2.08;;
62463;SDS011;48512;48.552;9.380;2023-04-24T09:05:44;3.28;;;2.08;;
62463;SDS011;48512;48.552;9.380;2023-04-24T09:08:13;2.80;;;2.40;;
62463;SDS011;48512;48.552;9.380;2023-04-24T09:10:40;6.80;;;2.63;;
62463;SDS011;48512;48.552;9.380;2023-04-24T09:13:07;8.80;;;3.13;;
62463;SDS011;48512;48.552;9.380;2023-04-24T09:15:37;16.00;;;6.15;;
62463;SDS011;48512;48.552;9.380;2023-04-24T09:18:04;10.55;;;5.40;;
62463;SDS011;48512;48.552;9.380;2023-04-24T09:20:31;7.32;;;2.75;;
62463;SDS011;48512;48.552;9.380;2023-04-24T09:22:58;5.32;;;2.60;;
62463;SDS011;48512;48.552;9.380;2023-04-24T09:25:34;3.75;;;1.98;;
62463;SDS011;48512;48.552;9.380;2023-04-24T09:28:04;4.18;;;2.35;;
62463;SDS011;48512;48.552;9.380;2023-04-24T09:30:32;2.58;;;2.20;;
62463;SDS011;48512;48.552;9.380;2023-04-24T09:33:19;7.07;;;2.28;;
62463;SDS011;48512;48.552;9.380;2023-04-24T09:35:51;3.55;;;1.85;;
62463;SDS011;48512;48.552;9.380;2023-04-24T09:38:18;3.42;;;1.88;;
62463;SDS011;48512;48.552;9.380;2023-04-24T09:40:58;3.63;;;1.85;;
62463;SDS011;48512;48.552;9.380;2023-04-24T09:43:26;2.65;;;2.17;;
62463;SDS011;48512;48.552;9.380;2023-04-24T09:45:55;5.47;;;2.88;;
62463;SDS011;48512;48.552;9.380;2023-04-24T09:48:29;3.00;;;2.10;;
62463;SDS011;48512;48.552;9.380;2023-04-24T09:51:00;4.00;;;2.03;;
62463;SDS011;48512;48.552;9.380;2023-04-24T09:53:27;2.33;;;1.80;;
62463;SDS011;48512;48.552;9.380;2023-04-24T09:55:54;2.22;;;1.95;;
62463;SDS011;48512;48.552;9.380;2023-04-24T09:58:26;4.22;;;2.50;;
62463;SDS011;48512;48.552;9.380;2023-04-24T10:00:56;4.82;;;2.40;;
62463;SDS011;48512;48.552;9.380;2023-04-24T10:03:25;2.83;;;2.28;;
62463;SDS011;48512;48.552;9.380;2023-04-24T10:05:57;2.38;;;1.90;;
62463;SDS011;48512;48.552;9.380;2023-04-24T10:08:25;3.58;;;2.55;;
62463;SDS011;48512;48.552;9.380;2023-04-24T10:10:52;3.50;;;2.42;;
62463;SDS011;48512;48.552;9.380;2023-04-24T10:13:18;2.88;;;1.98;;
62463;SDS011;48512;48.552;9.380;2023-04-24T10:15:45;3.15;;;2.22;;
62463;SDS011;48512;48.552;9.380;2023-04-24T10:18:14;4.45;;;2.22;;
62463;SDS011;48512;48.552;9.380;2023-04-24T10:20:41;3.63;;;2.38;;
62463;SDS011;48512;48.552;9.380;2023-04-24T10:23:08;3.85;;;2.22;;
62463;SDS011;48512;48.552;9.380;2023-04-24T10:25:34;5.97;;;2.20;;
62463;SDS011;48512;48.552;9.380;2023-04-24T10:28:02;4.15;;;2.30;;
62463;SDS011;48512;48.552;9.380;2023-04-24T10:30:30;2.53;;;2.10;;
62463;SDS011;48512;48.552;9.380;2023-04-24T10:33:04;6.63;;;2.05;;
62463;SDS011;48512;48.552;9.380;2023-04-24T10:35:31;3.92;;;1.80;;
62463;SDS011;48512;48.552;9.380;2023-04-24T10:38:06;3.78;;;2.25;;
62463;SDS011;48512;48.552;9.380;2023-04-24T10:40:35;5.00;;;2.13;;
62463;SDS011;48512;48.552;9.380;2023-04-24T10:43:03;4.15;;;2.22;;
62463;SDS011;48512;48.552;9.380;2023-04-24T10:45:33;2.45;;;2.20;;
62463;SDS011;48512;48.552;9.380;2023-04-24T10:50:41;3.13;;;1.88;;
62463;SDS011;48512;48.552;9.380;2023-04-24T10:53:22;5.28;;;2.20;;
62463;SDS011;48512;48.552;9.380;2023-04-24T10:55:50;3.13;;;2.13;;
62463;SDS011;48512;48.552;9.380;2023-04-24T10:58:23;2.33;;;1.80;;
62463;SDS011;48512;48.552;9.380;2023-04-24T11:01:01;2.22;;;2.03;;
62463;SDS011;48512;48.552;9.380;2023-04-24T11:03:27;2.60;;;1.77;;
62463;SDS011;48512;48.552;9.380;2023-04-24T11:11:24;2.42;;;1.83;;
62463;SDS011;48512;48.552;9.380;2023-04-24T11:19:04;4.13;;;1.83;;
62463;SDS011;48512;48.552;9.380;2023-04-24T11:26:58;2.97;;;1.85;;
62463;SDS011;48512;48.552;9.380;2023-04-24T11:32:28;2.97;;;2.35;;
62463;SDS011;48512;48.552;9.380;2023-04-24T11:34:59;3.38;;;2.05;;
62463;SDS011;48512;48.552;9.380;2023-04-24T11:37:28;1.95;;;1.85;;
62463;SDS011;48512;48.552;9.380;2023-04-24T11:39:56;2.90;;;1.98;;
62463;SDS011;48512;48.552;9.380;2023-04-24T11:42:23;11.20;;;5.35;;
62463;SDS011;48512;48.552;9.380;2023-04-24T11:44:54;3.15;;;2.17;;
62463;SDS011;48512;48.552;9.380;2023-04-24T11:47:31;2.20;;;2.00;;
62463;SDS011;48512;48.552;9.380;2023-04-24T11:49:59;3.65;;;1.77;;
62463;SDS011;48512;48.552;9.380;2023-04-24T11:52:27;2.38;;;1.75;;
62463;SDS011;48512;48.552;9.380;2023-04-24T11:54:53;3.45;;;2.20;;
62463;SDS011;48512;48.552;9.380;2023-04-24T11:57:20;2.38;;;1.90;;
62463;SDS011;48512;48.552;9.380;2023-04-24T11:59:48;3.00;;;2.00;;
62463;SDS011;48512;48.552;9.380;2023-04-24T12:02:24;1.50;;;1.40;;
62463;SDS011;48512;48.552;9.380;2023-04-24T12:04:52;3.40;;;1.70;;
62463;SDS011;48512;48.552;9.380;2023-04-24T12:07:19;2.03;;;1.77;;
62463;SDS011;48512;48.552;9.380;2023-04-24T12:09:46;2.88;;;2.30;;
62463;SDS011;48512;48.552;9.380;2023-04-24T12:12:14;3.97;;;2.00;;
62463;SDS011;48512;48.552;9.380;2023-04-24T12:14:49;2.92;;;1.77;;
62463;SDS011;48512;48.552;9.380;2023-04-24T12:17:16;3.17;;;2.10;;
62463;SDS011;48512;48.552;9.380;2023-04-24T12:19:46;2.67;;;2.00;;
62463;SDS011;48512;48.552;9.380;2023-04-24T12:22:13;2.78;;;2.08;;
62463;SDS011;48512;48.552;9.380;2023-04-24T12:27:24;5.43;;;1.75;;
62463;SDS011;48512;48.552;9.380;2023-04-24T12:29:52;2.58;;;2.10;;
62463;SDS011;48512;48.552;9.380;2023-04-24T12:32:22;4.35;;;2.00;;
62463;SDS011;48512;48.552;9.380;2023-04-24T12:34:49;3.75;;;1.98;;
62463;SDS011;48512;48.552;9.380;2023-04-24T12:37:17;2.25;;;1.90;;
62463;SDS011;48512;48.552;9.380;2023-04-24T12:42:31;2.97;;;1.80;;
62463;SDS011;48512;48.552;9.380;2023-04-24T12:44:58;3.70;;;2.45;;
62463;SDS011;48512;48.552;9.380;2023-04-24T12:47:26;2.83;;;1.92;;
62463;SDS011;48512;48.552;9.380;2023-04-24T12:49:53;4.60;;;1.60;;
62463;SDS011;48512;48.552;9.380;2023-04-24T12:52:21;4.00;;;2.00;;
62463;SDS011;48512;48.552;9.380;2023-04-24T12:54:52;2.30;;;1.80;;
62463;SDS011;48512;48.552;9.380;2023-04-24T12:57:20;3.28;;;2.00;;
62463;SDS011;48512;48.552;9.380;2023-04-24T12:59:47;3.63;;;2.13;;
62463;SDS011;48512;48.552;9.380;2023-04-24T13:02:14;3.40;;;2.03;;
62463;SDS011;48512;48.552;9.380;2023-04-24T13:04:46;3.13;;;2.20;;
62463;SDS011;48512;48.552;9.380;2023-04-24T13:07:13;2.42;;;1.73;;
62463;SDS011;48512;48.552;9.380;2023-04-24T13:09:40;6.60;;;2.60;;
62463;SDS011;48512;48.552;9.380;2023-04-24T13:12:08;5.63;;;2.80;;
62463;SDS011;48512;48.552;9.380;2023-04-24T13:14:35;4.40;;;3.20;;
62463;SDS011;48512;48.552;9.380;2023-04-24T13:17:01;4.75;;;2.60;;
62463;SDS011;48512;48.552;9.380;2023-04-24T13:19:28;3.70;;;2.45;;
62463;SDS011;48512;48.552;9.380;2023-04-24T13:21:55;5.68;;;2.50;;
62463;SDS011;48512;48.552;9.380;2023-04-24T13:24:23;3.78;;;2.50;;
62463;SDS011;48512;48.552;9.380;2023-04-24T13:26:50;6.25;;;2.80;;
62463;SDS011;48512;48.552;9.380;2023-04-24T13:29:17;5.32;;;2.80;;
62463;SDS011;48512;48.552;9.380;2023-04-24T13:31:44;10.93;;;3.60;;
62463;SDS011;48512;48.552;9.380;2023-04-24T13:34:10;5.38;;;3.10;;
62463;SDS011;48512;48.552;9.380;2023-04-24T13:36:36;4.78;;;2.80;;
62463;SDS011;48512;48.552;9.380;2023-04-24T13:39:02;4.13;;;3.10;;
62463;SDS011;48512;48.552;9.380;2023-04-24T13:41:30;4.20;;;3.10;;
62463;SDS011;48512;48.552;9.380;2023-04-24T13:43:58;7.32;;;3.17;;
62463;SDS011;48512;48.552;9.380;2023-04-24T13:46:25;4.60;;;3.55;;
62463;SDS011;48512;48.552;9.380;2023-04-24T13:48:51;6.20;;;3.50;;
62463;SDS011;48512;48.552;9.380;2023-04-24T13:51:18;5.70;;;3.03;;
62463;SDS011;48512;48.552;9.380;2023-04-24T13:53:44;5.40;;;3.58;;
62463;SDS011;48512;48.552;9.380;2023-04-24T13:56:10;5.70;;;3.58;;
62463;SDS011;48512;48.552;9.380;2023-04-24T13:58:38;5.93;;;3.65;;
62463;SDS011;48512;48.552;9.380;2023-04-24T14:01:04;7.13;;;3.58;;
62463;SDS011;48512;48.552;9.380;2023-04-24T14:03:30;6.38;;;3.53;;
62463;SDS011;48512;48.552;9.380;2023-04-24T14:05:57;5.82;;;3.17;;
62463;SDS011;48512;48.552;9.380;2023-04-24T14:08:23;9.65;;;3.17;;
62463;SDS011;48512;48.552;9.380;2023-04-24T14:10:49;9.48;;;4.00;;
62463;SDS011;48512;48.552;9.380;2023-04-24T14:13:16;6.25;;;3.92;;
62463;SDS011;48512;48.552;9.380;2023-04-24T14:15:43;7.70;;;4.28;;
62463;SDS011;48512;48.552;9.380;2023-04-24T14:18:09;5.82;;;3.42;;
62463;SDS011;48512;48.552;9.380;2023-04-24T14:20:35;6.88;;;3.47;;
62463;SDS011;48512;48.552;9.380;2023-04-24T14:23:01;6.25;;;3.92;;
62463;SDS011;48512;48.552;9.380;2023-04-24T14:25:28;7.13;;;4.60;;
62463;SDS011;48512;48.552;9.380;2023-04-24T14:27:54;12.30;;;5.93;;
62463;SDS011;48512;48.552;9.380;2023-04-24T14:30:20;6.97;;;4.05;;
62463;SDS011;48512;48.552;9.380;2023-04-24T14:32:47;9.13;;;4.72;;
62463;SDS011;48512;48.552;9.380;2023-04-24T14:35:14;9.48;;;5.00;;
62463;SDS011;48512;48.552;9.380;2023-04-24T14:37:40;6.35;;;4.03;;
62463;SDS011;48512;48.552;9.380;2023-04-24T14:40:07;5.65;;;3.92;;
62463;SDS011;48512;48.552;9.380;2023-04-24T14:42:34;8.45;;;4.57;;
62463;SDS011;48512;48.552;9.380;2023-04-24T14:45:01;9.98;;;4.82;;
62463;SDS011;48512;48.552;9.380;2023-04-24T14:47:28;6.68;;;3.47;;
62463;SDS011;48512;48.552;9.380;2023-04-24T14:49:55;10.75;;;3.97;;
62463;SDS011;48512;48.552;9.380;2023-04-24T14:52:21;7.80;;;3.60;;
62463;SDS011;48512;48.552;9.380;2023-04-24T14:54:48;13.00;;;5.93;;
62463;SDS011;48512;48.552;9.380;2023-04-24T14:57:14;7.03;;;4.15;;
62463;SDS011;48512;48.552;9.380;2023-04-24T14:59:41;5.20;;;3.03;;
62463;SDS011;48512;48.552;9.380;2023-04-24T15:02:07;6.78;;;3.33;;
62463;SDS011;48512;48.552;9.380;2023-04-24T15:04:33;4.35;;;3.40;;
62463;SDS011;48512;48.552;9.380;2023-04-24T15:06:59;5.68;;;3.28;;
62463;SDS011;48512;48.552;9.380;2023-04-24T15:09:26;6.50;;;3.72;;
62463;SDS011;48512;48.552;9.380;2023-04-24T15:11:53;8.75;;;3.78;;
62463;SDS011;48512;48.552;9.380;2023-04-24T15:14:20;6.45;;;3.58;;
62463;SDS011;48512;48.552;9.380;2023-04-24T15:16:47;4.75;;;3.50;;
62463;SDS011;48512;48.552;9.380;2023-04-24T15:19:13;5.93;;;3.70;;